sensor_id;sensor_type;location;lat;lon;timestamp;temperature;humidity
9730;DHT22;4904;49.152;11.004;2023-09-08T00:01:05;16.20;99.90
9730;DHT22;4904;49.152;11.004;2023-09-08T00:03:32;16.10;99.90
9730;DHT22;4904;49.152;11.004;2023-09-08T00:05:59;16.00;99.90
9730;DHT22;4904;49.152;11.004;2023-09-08T00:08:26;16.00;99.90
9730;DHT22;4904;49.152;11.004;2023-09-08T00:10:53;16.10;99.90
9730;DHT22;4904;49.152;11.004;2023-09-08T00:13:20;16.00;99.90
9730;DHT22;4904;49.152;11.004;2023-09-08T00:15:49;16.10;99.90
9730;DHT22;4904;49.152;11.004;2023-09-08T00:18:16;16.00;99.90
9730;DHT22;4904;49.152;11.004;2023-09-08T00:20:43;15.90;99.90
9730;DHT22;4904;49.152;11.004;2023-09-08T00:23:10;15.90;99.90
9730;DHT22;4904;49.152;11.004;2023-09-08T00:25:37;15.90;99.90
9730;DHT22;4904;49.152;11.004;2023-09-08T00:28:04;16.00;99.90
9730;DHT22;4904;49.152;11.004;2023-09-08T00:30:32;15.90;99.90
9730;DHT22;4904;49.152;11.004;2023-09-08T00:33:00;15.90;99.90
9730;DHT22;4904;49.152;11.004;2023-09-08T00:35:27;15.80;99.90
9730;DHT22;4904;49.152;11.004;2023-09-08T00:37:54;15.60;99.90
9730;DHT22;4904;49.152;11.004;2023-09-08T00:40:21;15.50;99.90
9730;DHT22;4904;49.152;11.004;2023-09-08T00:42:48;15.40;99.90
9730;DHT22;4904;49.152;11.004;2023-09-08T00:45:15;15.40;99.90
9730;DHT22;4904;49.152;11.004;2023-09-08T00:47:42;15.50;99.90
9730;DHT22;4904;49.152;11.004;2023-09-08T00:50:11;15.40;99.90
9730;DHT22;4904;49.152;11.004;2023-09-08T00:52:39;15.50;99.90
9730;DHT22;4904;49.152;11.004;2023-09-08T00:55:07;15.50;99.90
9730;DHT22;4904;49.152;11.004;2023-09-08T00:57:34;15.50;99.90
9730;DHT22;4904;49.152;11.004;2023-09-08T01:00:01;15.50;99.90
9730;DHT22;4904;49.152;11.004;2023-09-08T01:02:29;15.40;99.90
9730;DHT22;4904;49.152;11.004;2023-09-08T01:04:57;15.40;99.90
9730;DHT22;4904;49.152;11.004;2023-09-08T01:07:27;15.40;99.90
9730;DHT22;4904;49.152;11.004;2023-09-08T01:09:55;15.40;99.90
9730;DHT22;4904;49.152;11.004;2023-09-08T01:12:23;15.30;99.90
9730;DHT22;4904;49.152;11.004;2023-09-08T01:14:50;15.20;99.90
9730;DHT22;4904;49.152;11.004;2023-09-08T01:17:16;15.20;99.90
9730;DHT22;4904;49.152;11.004;2023-09-08T01:19:45;15.20;99.90
9730;DHT22;4904;49.152;11.004;2023-09-08T01:22:33;15.20;99.90
9730;DHT22;4904;49.152;11.004;2023-09-08T01:25:22;15.20;99.90
9730;DHT22;4904;49.152;11.004;2023-09-08T01:27:51;15.20;99.90
9730;DHT22;4904;49.152;11.004;2023-09-08T01:30:18;15.20;99.90
9730;DHT22;4904;49.152;11.004;2023-09-08T01:32:46;15.10;99.90
9730;DHT22;4904;49.152;11.004;2023-09-08T01:35:13;15.00;99.90
9730;DHT22;4904;49.152;11.004;2023-09-08T01:37:41;15.00;99.90
9730;DHT22;4904;49.152;11.004;2023-09-08T01:40:09;14.80;99.90
9730;DHT22;4904;49.152;11.004;2023-09-08T01:42:38;14.60;99.90
9730;DHT22;4904;49.152;11.004;2023-09-08T01:45:06;14.60;99.90
9730;DHT22;4904;49.152;11.004;2023-09-08T01:47:34;14.60;99.90
9730;DHT22;4904;49.152;11.004;2023-09-08T01:50:01;14.60;99.90
9730;DHT22;4904;49.152;11.004;2023-09-08T01:52:28;14.50;99.90
9730;DHT22;4904;49.152;11.004;2023-09-08T01:54:55;14.40;99.90
9730;DHT22;4904;49.152;11.004;2023-09-08T01:57:21;14.50;99.90
9730;DHT22;4904;49.152;11.004;2023-09-08T01:59:50;14.30;99.90
9730;DHT22;4904;49.152;11.004;2023-09-08T02:02:17;14.40;99.90
9730;DHT22;4904;49.152;11.004;2023-09-08T02:04:45;14.30;99.90
9730;DHT22;4904;49.152;11.004;2023-09-08T02:07:12;14.30;99.90
9730;DHT22;4904;49.152;11.004;2023-09-08T02:09:39;14.30;99.90
9730;DHT22;4904;49.152;11.004;2023-09-08T02:12:06;14.30;99.90
9730;DHT22;4904;49.152;11.004;2023-09-08T02:14:33;14.30;99.90
9730;DHT22;4904;49.152;11.004;2023-09-08T02:17:01;14.30;99.90
9730;DHT22;4904;49.152;11.004;2023-09-08T02:19:29;14.30;99.90
9730;DHT22;4904;49.152;11.004;2023-09-08T02:21:55;14.30;99.90
9730;DHT22;4904;49.152;11.004;2023-09-08T02:24:22;14.20;99.90
9730;DHT22;4904;49.152;11.004;2023-09-08T02:26:49;14.20;99.90
9730;DHT22;4904;49.152;11.004;2023-09-08T02:29:16;14.20;99.90
9730;DHT22;4904;49.152;11.004;2023-09-08T02:31:43;14.20;99.90
9730;DHT22;4904;49.152;11.004;2023-09-08T02:34:12;14.20;99.90
9730;DHT22;4904;49.152;11.004;2023-09-08T02:36:39;14.10;99.90
9730;DHT22;4904;49.152;11.004;2023-09-08T02:39:06;14.20;99.90
9730;DHT22;4904;49.152;11.004;2023-09-08T02:41:33;14.20;99.90
9730;DHT22;4904;49.152;11.004;2023-09-08T02:44:00;14.20;99.90
9730;DHT22;4904;49.152;11.004;2023-09-08T02:46:27;14.10;99.90
9730;DHT22;4904;49.152;11.004;2023-09-08T02:48:54;14.00;99.90
9730;DHT22;4904;49.152;11.004;2023-09-08T02:51:22;13.90;99.90
9730;DHT22;4904;49.152;11.004;2023-09-08T02:53:49;13.90;99.90
9730;DHT22;4904;49.152;11.004;2023-09-08T02:56:16;13.90;99.90
9730;DHT22;4904;49.152;11.004;2023-09-08T02:58:43;13.90;99.90
9730;DHT22;4904;49.152;11.004;2023-09-08T03:01:11;13.90;99.90
9730;DHT22;4904;49.152;11.004;2023-09-08T03:03:40;13.80;99.90
9730;DHT22;4904;49.152;11.004;2023-09-08T03:06:08;13.80;99.90
9730;DHT22;4904;49.152;11.004;2023-09-08T03:08:36;13.80;99.90
9730;DHT22;4904;49.152;11.004;2023-09-08T03:11:04;13.80;99.90
9730;DHT22;4904;49.152;11.004;2023-09-08T03:13:31;13.80;99.90
9730;DHT22;4904;49.152;11.004;2023-09-08T03:16:02;13.80;99.90
9730;DHT22;4904;49.152;11.004;2023-09-08T03:18:30;13.80;99.90
9730;DHT22;4904;49.152;11.004;2023-09-08T03:20:58;13.90;99.90
9730;DHT22;4904;49.152;11.004;2023-09-08T03:23:26;13.80;99.90
9730;DHT22;4904;49.152;11.004;2023-09-08T03:25:58;13.80;99.90
9730;DHT22;4904;49.152;11.004;2023-09-08T03:28:25;13.70;99.90
9730;DHT22;4904;49.152;11.004;2023-09-08T03:30:52;13.80;99.90
9730;DHT22;4904;49.152;11.004;2023-09-08T03:33:19;13.70;99.90
9730;DHT22;4904;49.152;11.004;2023-09-08T03:35:47;13.70;99.90
9730;DHT22;4904;49.152;11.004;2023-09-08T03:38:14;13.60;99.90
9730;DHT22;4904;49.152;11.004;2023-09-08T03:40:41;13.60;99.90
9730;DHT22;4904;49.152;11.004;2023-09-08T03:43:09;13.60;99.90
9730;DHT22;4904;49.152;11.004;2023-09-08T03:45:36;13.60;99.90
9730;DHT22;4904;49.152;11.004;2023-09-08T03:48:03;13.50;99.90
9730;DHT22;4904;49.152;11.004;2023-09-08T03:50:30;13.40;99.90
9730;DHT22;4904;49.152;11.004;2023-09-08T03:52:57;13.50;99.90
9730;DHT22;4904;49.152;11.004;2023-09-08T03:55:24;13.60;99.90
9730;DHT22;4904;49.152;11.004;2023-09-08T03:57:51;13.40;99.90
9730;DHT22;4904;49.152;11.004;2023-09-08T04:00:20;13.40;99.90
9730;DHT22;4904;49.152;11.004;2023-09-08T04:02:48;13.40;99.90
9730;DHT22;4904;49.152;11.004;2023-09-08T04:05:15;13.30;99.90
9730;DHT22;4904;49.152;11.004;2023-09-08T04:07:42;13.30;99.90
9730;DHT22;4904;49.152;11.004;2023-09-08T04:10:09;13.30;99.90
9730;DHT22;4904;49.152;11.004;2023-09-08T04:12:36;13.20;99.90
9730;DHT22;4904;49.152;11.004;2023-09-08T04:15:04;13.00;99.90
9730;DHT22;4904;49.152;11.004;2023-09-08T04:17:33;12.90;99.90
9730;DHT22;4904;49.152;11.004;2023-09-08T04:20:01;12.90;99.90
9730;DHT22;4904;49.152;11.004;2023-09-08T04:22:30;12.80;99.90
9730;DHT22;4904;49.152;11.004;2023-09-08T04:24:57;12.70;99.90
9730;DHT22;4904;49.152;11.004;2023-09-08T04:27:24;12.80;99.90
9730;DHT22;4904;49.152;11.004;2023-09-08T04:29:51;12.80;99.90
9730;DHT22;4904;49.152;11.004;2023-09-08T04:32:18;12.90;99.90
9730;DHT22;4904;49.152;11.004;2023-09-08T04:34:46;12.80;99.90
9730;DHT22;4904;49.152;11.004;2023-09-08T04:37:14;12.80;99.90
9730;DHT22;4904;49.152;11.004;2023-09-08T04:39:41;12.80;99.90
9730;DHT22;4904;49.152;11.004;2023-09-08T04:42:09;12.90;99.90
9730;DHT22;4904;49.152;11.004;2023-09-08T04:44:36;13.00;99.90
9730;DHT22;4904;49.152;11.004;2023-09-08T04:47:04;12.90;99.90
9730;DHT22;4904;49.152;11.004;2023-09-08T04:49:31;13.00;99.90
9730;DHT22;4904;49.152;11.004;2023-09-08T04:51:59;13.00;99.90
9730;DHT22;4904;49.152;11.004;2023-09-08T04:54:26;12.90;99.90
9730;DHT22;4904;49.152;11.004;2023-09-08T04:56:53;12.90;99.90
9730;DHT22;4904;49.152;11.004;2023-09-08T04:59:21;12.90;99.90
9730;DHT22;4904;49.152;11.004;2023-09-08T05:01:48;12.90;99.90
9730;DHT22;4904;49.152;11.004;2023-09-08T05:04:17;12.80;99.90
9730;DHT22;4904;49.152;11.004;2023-09-08T05:06:44;12.80;99.90
9730;DHT22;4904;49.152;11.004;2023-09-08T05:09:13;12.80;99.90
9730;DHT22;4904;49.152;11.004;2023-09-08T05:11:40;12.70;99.90
9730;DHT22;4904;49.152;11.004;2023-09-08T05:14:07;12.80;99.90
9730;DHT22;4904;49.152;11.004;2023-09-08T05:16:34;12.80;99.90
9730;DHT22;4904;49.152;11.004;2023-09-08T05:19:10;12.60;99.90
9730;DHT22;4904;49.152;11.004;2023-09-08T05:21:38;12.60;99.90
9730;DHT22;4904;49.152;11.004;2023-09-08T05:24:06;12.70;99.90
9730;DHT22;4904;49.152;11.004;2023-09-08T05:26:37;12.60;99.90
9730;DHT22;4904;49.152;11.004;2023-09-08T05:29:04;12.70;99.90
9730;DHT22;4904;49.152;11.004;2023-09-08T05:31:31;12.70;99.90
9730;DHT22;4904;49.152;11.004;2023-09-08T05:33:58;12.50;99.90
9730;DHT22;4904;49.152;11.004;2023-09-08T05:36:25;12.60;99.90
9730;DHT22;4904;49.152;11.004;2023-09-08T05:38:52;12.70;99.90
9730;DHT22;4904;49.152;11.004;2023-09-08T05:41:19;12.60;99.90
9730;DHT22;4904;49.152;11.004;2023-09-08T05:43:47;12.60;99.90
9730;DHT22;4904;49.152;11.004;2023-09-08T05:46:14;12.70;99.90
9730;DHT22;4904;49.152;11.004;2023-09-08T05:48:41;12.70;99.90
9730;DHT22;4904;49.152;11.004;2023-09-08T05:51:09;12.70;99.90
9730;DHT22;4904;49.152;11.004;2023-09-08T05:53:36;12.80;99.90
9730;DHT22;4904;49.152;11.004;2023-09-08T05:56:05;12.90;99.90
9730;DHT22;4904;49.152;11.004;2023-09-08T05:58:32;13.00;99.90
9730;DHT22;4904;49.152;11.004;2023-09-08T06:01:01;13.10;99.90
9730;DHT22;4904;49.152;11.004;2023-09-08T06:03:28;13.20;99.90
9730;DHT22;4904;49.152;11.004;2023-09-08T06:05:55;13.30;99.90
9730;DHT22;4904;49.152;11.004;2023-09-08T06:08:22;13.50;99.90
9730;DHT22;4904;49.152;11.004;2023-09-08T06:10:50;13.50;99.90
9730;DHT22;4904;49.152;11.004;2023-09-08T06:13:17;13.70;99.90
9730;DHT22;4904;49.152;11.004;2023-09-08T06:15:44;13.70;99.90
9730;DHT22;4904;49.152;11.004;2023-09-08T06:18:12;13.70;99.90
9730;DHT22;4904;49.152;11.004;2023-09-08T06:20:44;13.80;99.90
9730;DHT22;4904;49.152;11.004;2023-09-08T06:23:11;13.80;99.90
9730;DHT22;4904;49.152;11.004;2023-09-08T06:25:38;13.80;99.90
9730;DHT22;4904;49.152;11.004;2023-09-08T06:28:05;14.00;99.90
9730;DHT22;4904;49.152;11.004;2023-09-08T06:30:32;14.00;99.90
9730;DHT22;4904;49.152;11.004;2023-09-08T06:32:59;14.10;99.90
9730;DHT22;4904;49.152;11.004;2023-09-08T06:35:29;14.10;99.90
9730;DHT22;4904;49.152;11.004;2023-09-08T06:37:56;14.10;99.90
9730;DHT22;4904;49.152;11.004;2023-09-08T06:40:23;14.20;99.90
9730;DHT22;4904;49.152;11.004;2023-09-08T06:42:50;14.30;99.90
9730;DHT22;4904;49.152;11.004;2023-09-08T06:45:17;14.30;99.90
9730;DHT22;4904;49.152;11.004;2023-09-08T06:47:44;14.40;99.90
9730;DHT22;4904;49.152;11.004;2023-09-08T06:50:11;14.50;99.90
9730;DHT22;4904;49.152;11.004;2023-09-08T06:52:39;14.60;99.90
9730;DHT22;4904;49.152;11.004;2023-09-08T06:55:07;14.70;99.90
9730;DHT22;4904;49.152;11.004;2023-09-08T06:57:35;14.80;99.90
9730;DHT22;4904;49.152;11.004;2023-09-08T07:00:02;14.90;99.90
9730;DHT22;4904;49.152;11.004;2023-09-08T07:02:32;15.00;99.90
9730;DHT22;4904;49.152;11.004;2023-09-08T07:04:59;15.10;99.90
9730;DHT22;4904;49.152;11.004;2023-09-08T07:07:26;15.30;99.90
9730;DHT22;4904;49.152;11.004;2023-09-08T07:09:54;15.40;99.90
9730;DHT22;4904;49.152;11.004;2023-09-08T07:12:21;15.40;99.90
9730;DHT22;4904;49.152;11.004;2023-09-08T07:14:47;15.60;99.90
9730;DHT22;4904;49.152;11.004;2023-09-08T07:17:14;15.70;99.90
9730;DHT22;4904;49.152;11.004;2023-09-08T07:19:41;15.80;99.90
9730;DHT22;4904;49.152;11.004;2023-09-08T07:22:08;16.00;99.90
9730;DHT22;4904;49.152;11.004;2023-09-08T07:24:38;16.00;99.90
9730;DHT22;4904;49.152;11.004;2023-09-08T07:27:06;16.10;99.90
9730;DHT22;4904;49.152;11.004;2023-09-08T07:29:33;16.30;99.90
9730;DHT22;4904;49.152;11.004;2023-09-08T07:32:00;16.40;99.90
9730;DHT22;4904;49.152;11.004;2023-09-08T07:34:28;16.50;99.90
9730;DHT22;4904;49.152;11.004;2023-09-08T07:36:55;16.60;99.90
9730;DHT22;4904;49.152;11.004;2023-09-08T07:39:22;16.70;99.90
9730;DHT22;4904;49.152;11.004;2023-09-08T07:41:49;16.80;99.90
9730;DHT22;4904;49.152;11.004;2023-09-08T07:44:17;17.00;99.90
9730;DHT22;4904;49.152;11.004;2023-09-08T07:46:45;17.10;99.90
9730;DHT22;4904;49.152;11.004;2023-09-08T07:49:14;17.30;99.90
9730;DHT22;4904;49.152;11.004;2023-09-08T07:51:44;17.40;99.90
9730;DHT22;4904;49.152;11.004;2023-09-08T07:54:11;17.60;99.90
9730;DHT22;4904;49.152;11.004;2023-09-08T07:56:38;17.70;99.90
9730;DHT22;4904;49.152;11.004;2023-09-08T07:59:06;17.80;99.90
9730;DHT22;4904;49.152;11.004;2023-09-08T08:01:34;17.90;99.90
9730;DHT22;4904;49.152;11.004;2023-09-08T08:04:01;18.00;99.90
9730;DHT22;4904;49.152;11.004;2023-09-08T08:06:29;18.10;99.90
9730;DHT22;4904;49.152;11.004;2023-09-08T08:08:56;18.20;99.90
9730;DHT22;4904;49.152;11.004;2023-09-08T08:11:23;18.30;99.90
9730;DHT22;4904;49.152;11.004;2023-09-08T08:13:51;18.50;99.90
9730;DHT22;4904;49.152;11.004;2023-09-08T08:16:18;18.60;99.90
9730;DHT22;4904;49.152;11.004;2023-09-08T08:18:48;18.70;99.90
9730;DHT22;4904;49.152;11.004;2023-09-08T08:21:15;18.90;99.90
9730;DHT22;4904;49.152;11.004;2023-09-08T08:23:42;19.00;99.90
9730;DHT22;4904;49.152;11.004;2023-09-08T08:26:09;19.10;99.90
9730;DHT22;4904;49.152;11.004;2023-09-08T08:28:36;19.20;99.90
9730;DHT22;4904;49.152;11.004;2023-09-08T08:31:03;19.30;99.90
9730;DHT22;4904;49.152;11.004;2023-09-08T08:33:30;19.40;99.90
9730;DHT22;4904;49.152;11.004;2023-09-08T08:35:59;19.60;99.90
9730;DHT22;4904;49.152;11.004;2023-09-08T08:38:27;19.80;99.90
9730;DHT22;4904;49.152;11.004;2023-09-08T08:40:54;19.90;99.90
9730;DHT22;4904;49.152;11.004;2023-09-08T08:43:21;20.00;99.90
9730;DHT22;4904;49.152;11.004;2023-09-08T08:45:50;20.20;99.90
9730;DHT22;4904;49.152;11.004;2023-09-08T08:48:20;20.20;99.90
9730;DHT22;4904;49.152;11.004;2023-09-08T08:50:48;20.40;99.90
9730;DHT22;4904;49.152;11.004;2023-09-08T08:53:17;20.50;99.90
9730;DHT22;4904;49.152;11.004;2023-09-08T08:55:47;20.70;99.90
9730;DHT22;4904;49.152;11.004;2023-09-08T08:58:15;20.70;99.90
9730;DHT22;4904;49.152;11.004;2023-09-08T09:00:46;20.80;99.90
9730;DHT22;4904;49.152;11.004;2023-09-08T09:03:14;20.90;99.90
9730;DHT22;4904;49.152;11.004;2023-09-08T09:05:41;21.00;99.90
9730;DHT22;4904;49.152;11.004;2023-09-08T09:08:11;21.10;99.90
9730;DHT22;4904;49.152;11.004;2023-09-08T09:10:40;21.20;99.90
9730;DHT22;4904;49.152;11.004;2023-09-08T09:13:07;21.40;99.90
9730;DHT22;4904;49.152;11.004;2023-09-08T09:15:34;21.50;99.90
9730;DHT22;4904;49.152;11.004;2023-09-08T09:18:05;21.60;99.90
9730;DHT22;4904;49.152;11.004;2023-09-08T09:20:33;21.70;99.90
9730;DHT22;4904;49.152;11.004;2023-09-08T09:23:00;21.80;99.90
9730;DHT22;4904;49.152;11.004;2023-09-08T09:25:29;21.80;99.90
9730;DHT22;4904;49.152;11.004;2023-09-08T09:27:58;21.90;99.90
9730;DHT22;4904;49.152;11.004;2023-09-08T09:30:27;21.90;99.90
9730;DHT22;4904;49.152;11.004;2023-09-08T09:33:00;22.00;99.90
9730;DHT22;4904;49.152;11.004;2023-09-08T09:35:40;22.10;99.90
9730;DHT22;4904;49.152;11.004;2023-09-08T09:38:07;22.30;99.90
9730;DHT22;4904;49.152;11.004;2023-09-08T09:40:34;22.40;99.90
9730;DHT22;4904;49.152;11.004;2023-09-08T09:43:04;22.40;99.90
9730;DHT22;4904;49.152;11.004;2023-09-08T09:45:33;22.50;99.90
9730;DHT22;4904;49.152;11.004;2023-09-08T09:48:02;22.50;99.90
9730;DHT22;4904;49.152;11.004;2023-09-08T09:50:30;22.60;99.90
9730;DHT22;4904;49.152;11.004;2023-09-08T09:52:59;22.70;99.90
9730;DHT22;4904;49.152;11.004;2023-09-08T09:55:27;22.80;99.90
9730;DHT22;4904;49.152;11.004;2023-09-08T09:57:56;22.80;99.90
9730;DHT22;4904;49.152;11.004;2023-09-08T10:00:27;22.90;99.90
9730;DHT22;4904;49.152;11.004;2023-09-08T10:02:55;23.00;99.90
9730;DHT22;4904;49.152;11.004;2023-09-08T10:05:24;23.10;99.90
9730;DHT22;4904;49.152;11.004;2023-09-08T10:07:52;23.10;99.90
9730;DHT22;4904;49.152;11.004;2023-09-08T10:10:20;23.20;99.90
9730;DHT22;4904;49.152;11.004;2023-09-08T10:12:52;23.30;99.90
9730;DHT22;4904;49.152;11.004;2023-09-08T10:15:21;23.30;99.90
9730;DHT22;4904;49.152;11.004;2023-09-08T10:17:53;23.40;99.90
9730;DHT22;4904;49.152;11.004;2023-09-08T10:20:22;23.50;99.90
9730;DHT22;4904;49.152;11.004;2023-09-08T10:22:53;23.50;99.90
9730;DHT22;4904;49.152;11.004;2023-09-08T10:25:24;23.60;99.90
9730;DHT22;4904;49.152;11.004;2023-09-08T10:27:53;23.70;99.90
9730;DHT22;4904;49.152;11.004;2023-09-08T10:30:21;23.70;99.90
9730;DHT22;4904;49.152;11.004;2023-09-08T10:32:50;23.70;99.90
9730;DHT22;4904;49.152;11.004;2023-09-08T10:35:18;23.80;99.90
9730;DHT22;4904;49.152;11.004;2023-09-08T10:37:45;23.80;99.90
9730;DHT22;4904;49.152;11.004;2023-09-08T10:40:23;24.00;99.90
9730;DHT22;4904;49.152;11.004;2023-09-08T10:43:06;24.00;99.90
9730;DHT22;4904;49.152;11.004;2023-09-08T10:45:33;24.10;99.90
9730;DHT22;4904;49.152;11.004;2023-09-08T10:48:02;24.10;99.90
9730;DHT22;4904;49.152;11.004;2023-09-08T10:50:33;24.20;99.90
9730;DHT22;4904;49.152;11.004;2023-09-08T10:53:08;24.30;99.90
9730;DHT22;4904;49.152;11.004;2023-09-08T10:55:40;24.30;99.90
9730;DHT22;4904;49.152;11.004;2023-09-08T10:58:10;24.40;99.90
9730;DHT22;4904;49.152;11.004;2023-09-08T11:00:44;24.40;99.90
9730;DHT22;4904;49.152;11.004;2023-09-08T11:03:13;24.40;99.90
9730;DHT22;4904;49.152;11.004;2023-09-08T11:05:42;24.40;99.90
9730;DHT22;4904;49.152;11.004;2023-09-08T11:08:10;24.50;99.90
9730;DHT22;4904;49.152;11.004;2023-09-08T11:10:37;24.60;99.90
9730;DHT22;4904;49.152;11.004;2023-09-08T11:13:06;24.60;99.90
9730;DHT22;4904;49.152;11.004;2023-09-08T11:15:33;24.70;99.90
9730;DHT22;4904;49.152;11.004;2023-09-08T11:18:05;24.70;99.90
9730;DHT22;4904;49.152;11.004;2023-09-08T11:20:34;24.80;99.90
9730;DHT22;4904;49.152;11.004;2023-09-08T11:23:02;24.80;99.90
9730;DHT22;4904;49.152;11.004;2023-09-08T11:25:32;24.90;99.90
9730;DHT22;4904;49.152;11.004;2023-09-08T11:27:59;25.00;99.90
9730;DHT22;4904;49.152;11.004;2023-09-08T11:30:26;25.00;99.90
9730;DHT22;4904;49.152;11.004;2023-09-08T11:32:54;25.10;99.90
9730;DHT22;4904;49.152;11.004;2023-09-08T11:35:26;25.10;99.90
9730;DHT22;4904;49.152;11.004;2023-09-08T11:37:59;25.10;99.90
9730;DHT22;4904;49.152;11.004;2023-09-08T11:40:27;25.20;99.90
9730;DHT22;4904;49.152;11.004;2023-09-08T11:42:54;25.20;99.90
9730;DHT22;4904;49.152;11.004;2023-09-08T11:45:21;25.20;99.90
9730;DHT22;4904;49.152;11.004;2023-09-08T11:47:49;25.30;99.90
9730;DHT22;4904;49.152;11.004;2023-09-08T11:50:18;25.30;99.90
9730;DHT22;4904;49.152;11.004;2023-09-08T11:52:46;25.40;99.90
9730;DHT22;4904;49.152;11.004;2023-09-08T11:55:15;25.40;99.90
9730;DHT22;4904;49.152;11.004;2023-09-08T11:57:46;25.50;99.90
9730;DHT22;4904;49.152;11.004;2023-09-08T12:00:15;25.50;99.90
9730;DHT22;4904;49.152;11.004;2023-09-08T12:02:44;25.50;99.90
9730;DHT22;4904;49.152;11.004;2023-09-08T12:05:12;25.60;99.90
9730;DHT22;4904;49.152;11.004;2023-09-08T12:07:40;25.60;99.90
9730;DHT22;4904;49.152;11.004;2023-09-08T12:10:09;25.70;99.90
9730;DHT22;4904;49.152;11.004;2023-09-08T12:12:43;25.70;99.90
9730;DHT22;4904;49.152;11.004;2023-09-08T12:15:11;25.70;99.90
9730;DHT22;4904;49.152;11.004;2023-09-08T12:17:48;25.80;99.90
9730;DHT22;4904;49.152;11.004;2023-09-08T12:20:16;26.00;99.90
9730;DHT22;4904;49.152;11.004;2023-09-08T12:22:50;26.00;99.90
9730;DHT22;4904;49.152;11.004;2023-09-08T12:25:18;26.20;99.90
9730;DHT22;4904;49.152;11.004;2023-09-08T12:27:50;26.30;99.90
9730;DHT22;4904;49.152;11.004;2023-09-08T12:30:18;26.40;99.90
9730;DHT22;4904;49.152;11.004;2023-09-08T12:32:47;26.50;99.90
9730;DHT22;4904;49.152;11.004;2023-09-08T12:35:20;26.60;99.90
9730;DHT22;4904;49.152;11.004;2023-09-08T12:37:57;26.60;99.90
9730;DHT22;4904;49.152;11.004;2023-09-08T12:40:25;26.60;99.90
9730;DHT22;4904;49.152;11.004;2023-09-08T12:42:54;26.70;99.90
9730;DHT22;4904;49.152;11.004;2023-09-08T12:45:22;26.90;99.90
9730;DHT22;4904;49.152;11.004;2023-09-08T12:47:49;26.90;99.90
9730;DHT22;4904;49.152;11.004;2023-09-08T12:50:17;27.00;99.90
9730;DHT22;4904;49.152;11.004;2023-09-08T12:52:44;27.10;99.90
9730;DHT22;4904;49.152;11.004;2023-09-08T12:55:11;27.10;99.90
9730;DHT22;4904;49.152;11.004;2023-09-08T12:57:38;27.20;99.90
9730;DHT22;4904;49.152;11.004;2023-09-08T13:00:07;27.20;99.90
9730;DHT22;4904;49.152;11.004;2023-09-08T13:02:34;27.30;99.90
9730;DHT22;4904;49.152;11.004;2023-09-08T13:05:01;27.40;99.90
9730;DHT22;4904;49.152;11.004;2023-09-08T13:07:29;27.50;99.90
9730;DHT22;4904;49.152;11.004;2023-09-08T13:09:56;27.60;99.90
9730;DHT22;4904;49.152;11.004;2023-09-08T13:12:23;27.60;99.90
9730;DHT22;4904;49.152;11.004;2023-09-08T13:14:50;27.70;99.90
9730;DHT22;4904;49.152;11.004;2023-09-08T13:17:18;27.80;99.90
9730;DHT22;4904;49.152;11.004;2023-09-08T13:19:46;28.00;99.90
9730;DHT22;4904;49.152;11.004;2023-09-08T13:22:13;28.10;99.90
9730;DHT22;4904;49.152;11.004;2023-09-08T13:24:40;28.20;99.90
9730;DHT22;4904;49.152;11.004;2023-09-08T13:27:08;28.20;99.90
9730;DHT22;4904;49.152;11.004;2023-09-08T13:29:35;28.20;99.90
9730;DHT22;4904;49.152;11.004;2023-09-08T13:32:03;28.30;99.90
9730;DHT22;4904;49.152;11.004;2023-09-08T13:34:31;28.40;99.90
9730;DHT22;4904;49.152;11.004;2023-09-08T13:37:00;28.50;99.90
9730;DHT22;4904;49.152;11.004;2023-09-08T13:39:27;28.50;99.90
9730;DHT22;4904;49.152;11.004;2023-09-08T13:41:55;28.50;99.90
9730;DHT22;4904;49.152;11.004;2023-09-08T13:44:23;28.60;99.90
9730;DHT22;4904;49.152;11.004;2023-09-08T13:46:51;28.70;99.90
9730;DHT22;4904;49.152;11.004;2023-09-08T13:49:19;28.70;99.90
9730;DHT22;4904;49.152;11.004;2023-09-08T13:51:48;28.80;99.90
9730;DHT22;4904;49.152;11.004;2023-09-08T13:54:17;28.90;99.90
9730;DHT22;4904;49.152;11.004;2023-09-08T13:56:45;29.00;99.90
9730;DHT22;4904;49.152;11.004;2023-09-08T13:59:12;29.10;99.90
9730;DHT22;4904;49.152;11.004;2023-09-08T14:01:39;29.20;99.90
9730;DHT22;4904;49.152;11.004;2023-09-08T14:04:06;29.30;99.90
9730;DHT22;4904;49.152;11.004;2023-09-08T14:06:33;29.40;99.90
9730;DHT22;4904;49.152;11.004;2023-09-08T14:09:01;29.50;99.90
9730;DHT22;4904;49.152;11.004;2023-09-08T14:11:28;29.70;99.90
9730;DHT22;4904;49.152;11.004;2023-09-08T14:13:55;29.70;99.90
9730;DHT22;4904;49.152;11.004;2023-09-08T14:16:22;29.80;99.90
9730;DHT22;4904;49.152;11.004;2023-09-08T14:18:49;29.80;99.90
9730;DHT22;4904;49.152;11.004;2023-09-08T14:21:16;29.90;99.90
9730;DHT22;4904;49.152;11.004;2023-09-08T14:23:43;30.10;99.90
9730;DHT22;4904;49.152;11.004;2023-09-08T14:26:12;30.20;99.90
9730;DHT22;4904;49.152;11.004;2023-09-08T14:28:39;30.30;99.90
9730;DHT22;4904;49.152;11.004;2023-09-08T14:31:06;30.40;99.90
9730;DHT22;4904;49.152;11.004;2023-09-08T14:33:34;30.60;99.90
9730;DHT22;4904;49.152;11.004;2023-09-08T14:36:01;30.70;99.90
9730;DHT22;4904;49.152;11.004;2023-09-08T14:38:28;30.80;99.90
9730;DHT22;4904;49.152;11.004;2023-09-08T14:40:57;30.90;99.90
9730;DHT22;4904;49.152;11.004;2023-09-08T14:43:27;31.30;99.90
9730;DHT22;4904;49.152;11.004;2023-09-08T14:45:55;31.80;99.90
9730;DHT22;4904;49.152;11.004;2023-09-08T14:48:23;32.40;99.90
9730;DHT22;4904;49.152;11.004;2023-09-08T14:50:50;33.10;99.90
9730;DHT22;4904;49.152;11.004;2023-09-08T14:53:17;33.70;99.90
9730;DHT22;4904;49.152;11.004;2023-09-08T14:55:44;34.30;99.90
9730;DHT22;4904;49.152;11.004;2023-09-08T14:58:13;34.80;99.90
9730;DHT22;4904;49.152;11.004;2023-09-08T15:00:42;35.30;99.90
9730;DHT22;4904;49.152;11.004;2023-09-08T15:03:09;36.00;99.90
9730;DHT22;4904;49.152;11.004;2023-09-08T15:05:36;36.30;99.90
9730;DHT22;4904;49.152;11.004;2023-09-08T15:08:03;36.80;99.90
9730;DHT22;4904;49.152;11.004;2023-09-08T15:10:31;37.40;99.90
9730;DHT22;4904;49.152;11.004;2023-09-08T15:12:58;38.00;99.90
9730;DHT22;4904;49.152;11.004;2023-09-08T15:15:26;38.70;99.90
9730;DHT22;4904;49.152;11.004;2023-09-08T15:17:55;39.30;98.70
9730;DHT22;4904;49.152;11.004;2023-09-08T15:20:22;40.10;96.80
9730;DHT22;4904;49.152;11.004;2023-09-08T15:22:49;40.60;96.80
9730;DHT22;4904;49.152;11.004;2023-09-08T15:25:16;40.60;95.40
9730;DHT22;4904;49.152;11.004;2023-09-08T15:27:43;40.00;92.80
9730;DHT22;4904;49.152;11.004;2023-09-08T15:30:12;39.30;94.00
9730;DHT22;4904;49.152;11.004;2023-09-08T15:32:39;38.80;94.00
9730;DHT22;4904;49.152;11.004;2023-09-08T15:35:08;38.40;94.20
9730;DHT22;4904;49.152;11.004;2023-09-08T15:37:35;38.10;94.60
9730;DHT22;4904;49.152;11.004;2023-09-08T15:40:03;38.00;95.10
9730;DHT22;4904;49.152;11.004;2023-09-08T15:42:30;37.80;94.60
9730;DHT22;4904;49.152;11.004;2023-09-08T15:44:57;37.60;95.00
9730;DHT22;4904;49.152;11.004;2023-09-08T15:47:24;37.20;95.10
9730;DHT22;4904;49.152;11.004;2023-09-08T15:49:51;36.90;94.60